Terminal Aerodrome Forecast
Issued by NWS

Home | Current Version | Previous Version | Text Only | Print | Product List | Glossary On
Versions: 1 2 3 4 5 6 7 8 9 10 11 12 13 14 15 16 17 18 19 20 21 22 23 24 25 26 27 28 29 30 31
000
FTUS45 KGGW 021200 AAA
TAFOLF
TAF AMD
KOLF 021229Z 0212/0312 28009KT P6SM BKN070
     FM021300 30016KT P6SM VCSH BKN015
     FM021800 31021G29KT P6SM BKN050
     FM030000 31021G30KT P6SM SCT060
     FM030300 31010KT P6SM SCT060=

USA.gov is the U.S. government's official web portal to all federal, state and local government web resources and services.